Time;durP1;ratioP1;P1;durP2;ratioP2;P2;SDS_P1;SDS_P2;PMS_P1;PMS_P2;Temp;Humidity;BMP_temperature;BMP_pressure;BME280_temperature;BME280_humidity;BME280_pressure;Samples;Min_cycle;Max_cycle;Signal;HPM_P1;HPM_P2
2021/03/17 00:02:17;;;;;;;19.60;17.83;;;27.20;91.60;;;;;;5061795;28;20025;-46
2021/03/17 00:05:10;;;;;;;16.23;12.27;;;27.20;91.60;;;;;;5017829;28;20038;-44
2021/03/17 00:07:37;;;;;;;18.05;14.70;;;27.20;91.70;;;;;;5000098;28;20037;-45
2021/03/17 00:10:07;;;;;;;19.73;17.25;;;27.20;91.70;;;;;;5000013;28;20054;-44
2021/03/17 00:12:34;;;;;;;17.30;12.88;;;27.20;91.60;;;;;;5000169;28;20022;-44
2021/03/17 00:15:04;;;;;;;12.10;8.63;;;27.20;91.60;;;;;;4992579;28;20035;-44
2021/03/17 00:17:34;;;;;;;10.25;7.75;;;27.20;91.60;;;;;;4999697;28;20034;-46
2021/03/17 00:20:10;;;;;;;11.75;8.30;;;27.20;91.60;;;;;;4983881;28;20041;-49
2021/03/17 00:22:39;;;;;;;15.93;14.38;;;27.20;91.50;;;;;;4999949;28;20039;-43
2021/03/17 00:25:27;;;;;;;16.23;10.15;;;27.20;91.50;;;;;;5025394;28;20322;-44
2021/03/17 00:27:57;;;;;;;10.13;5.57;;;27.20;91.50;;;;;;5002658;28;20266;-43
2021/03/17 00:30:26;;;;;;;13.95;5.65;;;27.10;91.40;;;;;;5002709;28;20049;-46
2021/03/17 00:33:06;;;;;;;14.07;5.07;;;27.10;91.40;;;;;;4954153;28;20065;-45
2021/03/17 00:35:33;;;;;;;12.20;4.93;;;27.20;91.60;;;;;;5002320;28;20082;-48
2021/03/17 00:38:08;;;;;;;6.45;4.57;;;27.10;91.60;;;;;;5002538;28;20030;-46
2021/03/17 00:40:49;;;;;;;14.23;5.13;;;27.20;91.80;;;;;;5002315;28;20093;-44
2021/03/17 00:43:21;;;;;;;11.57;5.60;;;27.10;92.00;;;;;;5003591;28;20376;-45
2021/03/17 00:45:49;;;;;;;17.98;5.22;;;27.10;92.10;;;;;;5005954;28;20046;-44
2021/03/17 00:49:11;;;;;;;8.73;4.60;;;27.10;92.10;;;;;;5022314;28;20017;-54
2021/03/17 00:51:37;;;;;;;11.27;4.60;;;27.10;92.10;;;;;;5005680;28;20037;-51
2021/03/17 00:54:04;;;;;;;10.40;4.80;;;27.10;92.40;;;;;;5021330;28;20025;-45
2021/03/17 00:56:34;;;;;;;11.27;4.35;;;27.10;92.20;;;;;;5022046;28;20105;-46
2021/03/17 00:59:26;;;;;;;11.60;5.03;;;27.10;92.20;;;;;;4990287;28;20038;-44
2021/03/17 01:01:53;;;;;;;17.63;7.95;;;27.00;92.00;;;;;;5037431;28;20033;-49
2021/03/17 01:04:23;;;;;;;10.93;6.63;;;27.00;91.90;;;;;;5060050;28;20021;-44
2021/03/17 01:06:50;;;;;;;17.20;10.55;;;27.00;91.60;;;;;;5021116;28;20030;-44
2021/03/17 01:09:23;;;;;;;12.82;7.57;;;27.00;91.40;;;;;;5003343;28;20054;-44
2021/03/17 01:11:53;;;;;;;12.00;5.72;;;27.00;91.40;;;;;;5020723;28;20079;-44
2021/03/17 01:14:19;;;;;;;129.15;116.15;;;27.00;91.40;;;;;;5003535;28;20034;-49
2021/03/17 01:16:47;;;;;;;67.72;60.90;;;27.00;91.40;;;;;;5003411;28;20230;-44
2021/03/17 01:19:14;;;;;;;36.65;33.00;;;27.00;91.50;;;;;;5020171;28;20089;-45
2021/03/17 01:21:40;;;;;;;20.50;18.50;;;27.00;91.50;;;;;;5003264;28;20022;-45
2021/03/17 01:24:10;;;;;;;18.25;14.30;;;27.00;91.60;;;;;;5020704;28;20128;-45
2021/03/17 01:26:38;;;;;;;14.77;11.77;;;27.00;91.70;;;;;;5020719;28;20037;-49
2021/03/17 01:29:11;;;;;;;15.30;10.27;;;27.00;91.70;;;;;;5020476;28;20028;-44
2021/03/17 01:31:38;;;;;;;19.80;8.38;;;27.00;91.70;;;;;;5003520;28;20032;-43
2021/03/17 01:34:07;;;;;;;14.25;7.18;;;26.90;91.70;;;;;;5020158;28;20071;-46
2021/03/17 01:36:37;;;;;;;10.52;6.85;;;26.90;91.90;;;;;;5003473;28;20361;-46
2021/03/17 01:39:05;;;;;;;10.40;7.00;;;26.90;92.00;;;;;;5003562;28;20026;-44
2021/03/17 01:41:33;;;;;;;13.90;7.30;;;27.00;92.10;;;;;;5021313;28;20341;-49
2021/03/17 01:44:26;;;;;;;17.90;7.20;;;27.00;92.30;;;;;;5018651;28;20037;-46
2021/03/17 01:46:56;;;;;;;15.55;6.50;;;26.90;92.30;;;;;;5018580;28;20068;-49
2021/03/17 01:49:27;;;;;;;14.55;6.70;;;27.00;92.40;;;;;;5002156;28;20223;-44
2021/03/17 01:51:56;;;;;;;13.65;8.13;;;26.90;92.40;;;;;;5006122;28;20042;-46
2021/03/17 01:54:24;;;;;;;15.52;8.40;;;26.90;92.20;;;;;;5017869;28;20307;-48
2021/03/17 01:56:54;;;;;;;15.13;9.30;;;26.90;92.10;;;;;;5018431;28;20026;-51
2021/03/17 01:59:29;;;;;;;11.60;9.10;;;26.90;92.10;;;;;;5004592;28;20053;-48
2021/03/17 02:01:58;;;;;;;16.05;9.95;;;26.80;91.90;;;;;;4989873;28;20042;-47
2021/03/17 02:04:29;;;;;;;16.60;9.53;;;26.90;91.90;;;;;;5017111;28;20390;-47
2021/03/17 02:07:07;;;;;;;13.02;7.85;;;26.90;91.90;;;;;;5006335;28;20068;-51
2021/03/17 02:10:10;;;;;;;10.93;6.60;;;26.90;91.80;;;;;;5021304;28;20054;-46
2021/03/17 02:13:14;;;;;;;11.60;5.65;;;26.90;91.70;;;;;;5083911;28;20032;-49
2021/03/17 02:16:24;;;;;;;11.07;5.07;;;26.90;91.60;;;;;;5068023;28;20059;-44
2021/03/17 02:19:30;;;;;;;9.45;4.93;;;26.90;91.70;;;;;;5082031;28;20052;-44
2021/03/17 02:22:43;;;;;;;11.75;5.00;;;26.90;91.70;;;;;;5067659;28;20051;-49
2021/03/17 02:25:48;;;;;;;11.00;4.35;;;26.80;91.50;;;;;;5067896;28;20036;-48
2021/03/17 02:29:00;;;;;;;9.20;4.00;;;26.80;91.00;;;;;;5084302;28;20025;-44
2021/03/17 02:31:50;;;;;;;11.43;3.80;;;26.80;90.60;;;;;;5044078;28;20080;-49
2021/03/17 02:34:29;;;;;;;7.47;3.50;;;26.80;90.30;;;;;;5082667;28;20043;-47
2021/03/17 02:37:05;;;;;;;9.10;3.78;;;26.70;90.20;;;;;;5083965;28;20345;-45
2021/03/17 02:39:43;;;;;;;10.70;3.63;;;26.80;90.20;;;;;;5084112;28;20229;-44
2021/03/17 02:42:36;;;;;;;14.48;3.90;;;26.70;90.00;;;;;;5083068;28;20032;-46
2021/03/17 02:45:08;;;;;;;11.20;4.97;;;26.70;90.10;;;;;;5057639;28;20055;-54
2021/03/17 02:47:44;;;;;;;10.63;5.65;;;26.70;90.20;;;;;;5065901;28;20024;-48
2021/03/17 02:50:15;;;;;;;12.18;6.25;;;26.70;90.30;;;;;;5042037;28;20045;-49
2021/03/17 02:52:52;;;;;;;18.70;7.20;;;26.80;90.40;;;;;;5006122;28;20029;-48
2021/03/17 02:55:23;;;;;;;11.80;5.78;;;26.80;90.50;;;;;;5022838;28;20032;-46
2021/03/17 02:57:55;;;;;;;13.52;5.18;;;26.80;90.60;;;;;;5022568;28;20022;-46
2021/03/17 03:00:23;;;;;;;13.20;5.40;;;26.80;90.60;;;;;;5022696;28;20041;-44
2021/03/17 03:02:52;;;;;;;14.38;5.10;;;26.80;90.60;;;;;;5022692;28;20028;-47
2021/03/17 03:05:25;;;;;;;9.23;4.47;;;26.80;90.70;;;;;;5005580;28;20090;-45
2021/03/17 03:08:00;;;;;;;12.50;4.05;;;26.70;90.90;;;;;;5005605;28;20302;-44
2021/03/17 03:10:33;;;;;;;10.20;4.45;;;26.70;90.80;;;;;;5000833;28;20086;-48
2021/03/17 03:13:00;;;;;;;;;;;26.70;90.90;;;;;;5105777;28;20012;-48
2021/03/17 03:15:30;;;;;;;10.35;4.35;;;26.70;90.90;;;;;;5105750;28;19915;-49
2021/03/17 03:18:01;;;;;;;9.40;3.90;;;26.70;90.90;;;;;;5046015;28;20264;-52
2021/03/17 03:20:42;;;;;;;11.98;4.63;;;26.70;91.00;;;;;;5062334;28;20037;-51
2021/03/17 03:23:13;;;;;;;10.10;4.22;;;26.70;91.10;;;;;;5063246;28;20025;-46
2021/03/17 03:25:49;;;;;;;8.40;4.07;;;26.70;91.10;;;;;;5062675;28;20047;-48
2021/03/17 03:28:42;;;;;;;7.65;4.20;;;26.70;91.20;;;;;;5042744;28;20033;-45
2021/03/17 03:31:12;;;;;;;11.85;4.30;;;26.70;91.30;;;;;;5043057;28;20092;-46
2021/03/17 03:33:40;;;;;;;10.27;4.15;;;26.70;91.50;;;;;;5042970;28;20250;-47
2021/03/17 03:36:31;;;;;;;8.90;3.78;;;26.60;91.30;;;;;;5025710;28;20037;-47
2021/03/17 03:39:08;;;;;;;8.00;3.85;;;26.70;91.40;;;;;;5025766;28;20068;-44
2021/03/17 03:41:40;;;;;;;10.15;4.50;;;26.60;91.50;;;;;;5043256;28;20057;-45
2021/03/17 03:44:09;;;;;;;12.68;4.50;;;26.60;91.40;;;;;;5042741;28;20025;-47
2021/03/17 03:46:39;;;;;;;10.80;4.25;;;26.60;91.40;;;;;;5042309;28;20112;-50
2021/03/17 03:49:09;;;;;;;8.02;4.35;;;26.60;91.40;;;;;;5042221;28;20032;-48
2021/03/17 03:51:40;;;;;;;8.23;3.95;;;26.60;91.60;;;;;;5042213;28;20041;-49
2021/03/17 03:54:36;;;;;;;7.78;3.85;;;26.60;91.30;;;;;;5042232;28;20049;-44
2021/03/17 03:57:27;;;;;;;8.73;3.53;;;26.60;91.20;;;;;;5009329;28;20033;-47
2021/03/17 04:00:22;;;;;;;7.20;3.53;;;26.60;90.80;;;;;;5042554;28;20041;-45
2021/03/17 04:03:02;;;;;;;7.43;3.33;;;26.60;90.80;;;;;;4983535;28;20057;-44
2021/03/17 04:05:36;;;;;;;7.72;3.67;;;26.60;90.70;;;;;;4976224;28;20030;-50
2021/03/17 04:09:00;;;;;;;5.95;3.60;;;26.60;90.60;;;;;;5004028;28;20029;-49
2021/03/17 04:11:30;;;;;;;10.23;4.07;;;26.60;90.60;;;;;;4983487;28;20042;-45
2021/03/17 04:14:09;;;;;;;7.60;3.20;;;26.60;90.80;;;;;;4951230;28;20041;-45
2021/03/17 04:16:38;;;;;;;9.43;3.75;;;26.50;90.60;;;;;;4983455;28;20053;-47
2021/03/17 04:19:06;;;;;;;6.82;3.58;;;26.50;90.70;;;;;;4983199;28;20022;-47
2021/03/17 04:21:37;;;;;;;9.57;3.40;;;26.50;91.00;;;;;;4983114;28;20362;-46
2021/03/17 04:24:06;;;;;;;10.35;3.72;;;26.60;91.10;;;;;;4983425;28;20026;-48
2021/03/17 04:26:42;;;;;;;11.98;4.00;;;26.60;91.10;;;;;;4983341;28;20034;-47
2021/03/17 04:29:10;;;;;;;11.13;4.10;;;26.60;91.20;;;;;;4964929;28;20357;-46
2021/03/17 04:31:40;;;;;;;9.00;3.63;;;26.60;91.20;;;;;;4980774;28;20149;-48
2021/03/17 04:34:14;;;;;;;6.75;4.05;;;26.50;91.30;;;;;;4983218;28;20066;-45
2021/03/17 04:37:01;;;;;;;9.18;3.58;;;26.50;91.30;;;;;;4983224;28;20039;-51
2021/03/17 04:39:33;;;;;;;5.40;3.72;;;26.50;91.10;;;;;;4974941;28;20029;-46
2021/03/17 04:42:02;;;;;;;8.55;3.00;;;26.50;90.90;;;;;;5023734;28;20073;-45
2021/03/17 04:44:30;;;;;;;10.68;3.72;;;26.50;90.70;;;;;;5019246;28;20025;-45
2021/03/17 04:47:01;;;;;;;7.63;4.13;;;26.50;90.60;;;;;;5021311;28;20021;-43
2021/03/17 04:49:36;;;;;;;11.93;4.50;;;26.50;90.70;;;;;;5020534;28;20038;-45
2021/03/17 04:52:04;;;;;;;13.75;3.83;;;26.50;90.60;;;;;;5003898;28;20061;-47
2021/03/17 04:54:32;;;;;;;8.60;3.55;;;26.40;90.50;;;;;;5021273;28;20017;-47
2021/03/17 04:57:16;;;;;;;10.98;3.75;;;26.40;90.10;;;;;;4987161;28;20105;-47
2021/03/17 04:59:50;;;;;;;9.57;3.47;;;26.40;90.40;;;;;;5021285;28;20025;-48
2021/03/17 05:02:26;;;;;;;6.32;3.13;;;26.40;90.30;;;;;;5020821;28;20288;-47
2021/03/17 05:05:17;;;;;;;21.80;5.68;;;26.40;90.10;;;;;;5004211;28;20040;-46
2021/03/17 05:08:16;;;;;;;31.25;8.90;;;26.40;90.40;;;;;;4980155;28;20068;-46
2021/03/17 05:10:43;;;;;;;25.92;7.00;;;26.40;91.30;;;;;;5074435;28;20402;-48
2021/03/17 05:13:12;;;;;;;20.88;6.57;;;26.30;91.50;;;;;;5082060;28;20052;-46
2021/03/17 05:15:41;;;;;;;18.60;5.45;;;26.30;91.70;;;;;;5082177;28;20030;-48
2021/03/17 05:18:20;;;;;;;10.73;4.88;;;26.20;91.90;;;;;;5064580;28;20115;-46
2021/03/17 05:20:54;;;;;;;11.15;3.95;;;26.20;91.80;;;;;;5080667;28;20397;-51
2021/03/17 05:23:52;;;;;;;9.10;3.72;;;26.10;91.80;;;;;;5065615;28;20040;-46
2021/03/17 05:26:59;;;;;;;6.53;3.40;;;26.10;91.50;;;;;;5081697;28;20371;-47
2021/03/17 05:29:27;;;;;;;7.40;3.15;;;26.10;91.50;;;;;;5025364;28;20030;-47
2021/03/17 05:31:56;;;;;;;9.07;3.42;;;26.00;91.60;;;;;;5041761;28;20042;-49
2021/03/17 05:34:23;;;;;;;9.73;3.17;;;26.00;91.70;;;;;;5044727;28;20025;-45
2021/03/17 05:36:52;;;;;;;8.23;3.00;;;26.00;91.80;;;;;;5045298;28;20135;-52
2021/03/17 05:39:24;;;;;;;10.60;3.42;;;26.00;91.80;;;;;;5029588;28;20037;-50
2021/03/17 05:42:03;;;;;;;7.00;3.17;;;26.00;91.70;;;;;;5029258;28;20032;-47
2021/03/17 05:44:54;;;;;;;7.35;3.30;;;25.90;91.80;;;;;;5030735;28;20036;-52
2021/03/17 05:47:31;;;;;;;7.90;3.13;;;25.90;91.80;;;;;;5032199;28;20202;-45
2021/03/17 05:50:04;;;;;;;9.20;3.17;;;25.90;91.80;;;;;;5049164;28;20021;-44
2021/03/17 05:52:37;;;;;;;7.15;3.20;;;25.90;91.80;;;;;;5049387;28;20049;-48
2021/03/17 05:55:23;;;;;;;;;;;25.90;91.80;;;;;;5032478;28;20053;-46
2021/03/17 05:57:51;;;;;;;6.25;3.20;;;25.90;91.70;;;;;;5045663;28;19908;-48
2021/03/17 06:00:40;;;;;;;7.88;3.20;;;25.90;91.80;;;;;;5045206;28;20021;-45
2021/03/17 06:03:07;;;;;;;5.22;3.17;;;25.90;91.90;;;;;;5044476;28;20029;-44
2021/03/17 06:05:36;;;;;;;9.50;3.45;;;25.90;91.90;;;;;;5044497;28;20033;-47
2021/03/17 06:08:13;;;;;;;7.93;3.47;;;25.90;91.90;;;;;;5044797;28;20098;-45
2021/03/17 06:10:43;;;;;;;7.40;3.25;;;25.80;91.90;;;;;;5044510;28;20228;-45
2021/03/17 06:13:12;;;;;;;8.57;3.67;;;25.80;91.90;;;;;;5045039;28;20325;-46
2021/03/17 06:15:42;;;;;;;14.23;3.60;;;25.80;92.20;;;;;;5044661;28;20060;-45
2021/03/17 06:18:29;;;;;;;7.82;3.42;;;25.80;92.00;;;;;;5044675;28;20025;-45
2021/03/17 06:20:57;;;;;;;6.78;3.33;;;25.80;92.10;;;;;;4948210;28;20086;-48
2021/03/17 06:23:25;;;;;;;8.90;3.97;;;25.80;92.10;;;;;;4947597;29;20316;-46
2021/03/17 06:25:57;;;;;;;5.57;3.30;;;25.80;92.20;;;;;;4947530;29;20178;-47
2021/03/17 06:28:27;;;;;;;7.10;3.58;;;25.80;92.30;;;;;;4962995;29;20036;-45
2021/03/17 06:30:55;;;;;;;11.57;3.72;;;25.70;92.30;;;;;;4962990;29;20042;-46
2021/03/17 06:33:22;;;;;;;5.82;3.13;;;25.80;92.20;;;;;;4963327;29;20038;-46
2021/03/17 06:35:50;;;;;;;4.57;3.10;;;25.80;92.20;;;;;;4963004;29;20091;-46
2021/03/17 06:38:23;;;;;;;8.30;3.33;;;25.80;92.20;;;;;;4947083;28;20027;-46
2021/03/17 06:41:05;;;;;;;9.15;3.38;;;25.70;92.00;;;;;;4962771;28;20035;-45
2021/03/17 06:44:01;;;;;;;5.72;3.00;;;25.80;92.00;;;;;;4924647;29;20051;-45
2021/03/17 06:46:32;;;;;;;6.85;3.17;;;25.80;91.70;;;;;;4998931;28;20027;-45
2021/03/17 06:49:00;;;;;;;5.38;3.25;;;25.70;92.00;;;;;;4947277;29;20046;-45
2021/03/17 06:51:30;;;;;;;13.35;3.20;;;25.80;91.70;;;;;;4962706;29;20035;-46
2021/03/17 06:54:05;;;;;;;8.13;3.33;;;25.80;91.70;;;;;;4945951;29;20047;-45
2021/03/17 06:57:03;;;;;;;7.47;3.33;;;25.80;91.60;;;;;;4962750;29;20090;-52
2021/03/17 06:59:30;;;;;;;8.48;2.90;;;25.80;91.60;;;;;;4962547;29;20043;-49
2021/03/17 07:01:57;;;;;;;8.63;3.30;;;25.70;91.50;;;;;;4962632;29;20132;-48
2021/03/17 07:04:31;;;;;;;5.15;2.75;;;25.80;91.40;;;;;;4962559;29;20316;-45
2021/03/17 07:07:09;;;;;;;5.75;2.65;;;25.70;91.40;;;;;;4931319;29;20027;-50
2021/03/17 07:09:49;;;;;;;4.90;2.90;;;25.60;91.30;;;;;;4947298;29;20373;-45
2021/03/17 07:12:31;;;;;;;6.30;2.70;;;25.60;91.30;;;;;;4961865;29;20371;-45
2021/03/17 07:15:10;;;;;;;6.70;2.55;;;25.60;91.40;;;;;;4991961;28;20030;-45
2021/03/17 07:17:45;;;;;;;5.80;2.75;;;25.70;91.40;;;;;;5001743;28;20038;-47
2021/03/17 07:20:35;;;;;;;5.95;2.60;;;25.70;91.30;;;;;;5002882;28;20088;-46
2021/03/17 07:23:48;;;;;;;5.07;2.80;;;25.70;91.30;;;;;;5002138;28;20026;-45
2021/03/17 07:26:43;;;;;;;7.07;3.00;;;25.70;91.30;;;;;;5001681;28;20206;-51
2021/03/17 07:29:15;;;;;;;5.07;2.47;;;25.70;91.20;;;;;;5018053;28;20094;-47
2021/03/17 07:31:57;;;;;;;5.63;2.28;;;25.70;91.30;;;;;;5001742;28;20098;-47
2021/03/17 07:34:45;;;;;;;7.03;2.53;;;25.70;91.20;;;;;;5002856;28;20057;-44
2021/03/17 07:37:13;;;;;;;7.47;2.38;;;25.70;91.20;;;;;;4998914;28;20030;-45
2021/03/17 07:39:43;;;;;;;6.65;2.55;;;25.70;91.20;;;;;;4985338;28;20041;-46
2021/03/17 07:42:15;;;;;;;6.03;2.17;;;25.70;91.10;;;;;;5001460;28;20238;-45
2021/03/17 07:44:47;;;;;;;6.40;2.08;;;25.70;91.10;;;;;;5001842;28;20089;-45
2021/03/17 07:47:15;;;;;;;6.28;2.20;;;25.60;91.10;;;;;;4985138;28;20035;-44
2021/03/17 07:49:48;;;;;;;4.20;2.15;;;25.60;90.90;;;;;;4985271;28;20104;-46
2021/03/17 07:52:23;;;;;;;5.88;1.95;;;25.60;90.70;;;;;;5002717;28;20040;-47
2021/03/17 07:54:52;;;;;;;2.90;1.83;;;25.60;90.50;;;;;;5002356;28;20030;-45
2021/03/17 07:57:20;;;;;;;5.47;2.20;;;25.60;90.50;;;;;;5000345;28;20035;-46
2021/03/17 07:59:48;;;;;;;4.95;2.40;;;25.60;90.60;;;;;;5002152;28;20044;-47
2021/03/17 08:02:17;;;;;;;4.90;1.80;;;25.60;90.40;;;;;;5002298;28;20093;-46
2021/03/17 08:04:46;;;;;;;4.00;1.98;;;25.60;90.20;;;;;;5002423;28;20019;-45
2021/03/17 08:07:16;;;;;;;3.03;2.15;;;25.60;90.20;;;;;;5002246;28;20093;-45
2021/03/17 08:09:44;;;;;;;3.50;1.92;;;25.60;90.10;;;;;;5001085;28;20104;-46
2021/03/17 08:12:11;;;;;;;4.00;1.60;;;25.60;90.20;;;;;;5002711;28;20030;-47
2021/03/17 08:14:44;;;;;;;6.15;2.20;;;25.70;90.20;;;;;;5017883;28;20323;-51
2021/03/17 08:17:13;;;;;;;4.38;1.83;;;25.70;90.20;;;;;;5002234;28;20039;-47
2021/03/17 08:19:42;;;;;;;3.95;2.00;;;25.60;90.10;;;;;;5001731;28;20026;-50
2021/03/17 08:22:10;;;;;;;3.75;2.03;;;25.60;90.10;;;;;;5001051;28;20022;-48
2021/03/17 08:25:05;;;;;;;3.63;1.50;;;25.70;90.10;;;;;;5001851;28;20041;-48
2021/03/17 08:27:32;;;;;;;3.15;1.60;;;25.70;90.10;;;;;;5061992;28;20037;-46
2021/03/17 08:30:09;;;;;;;3.55;1.80;;;25.70;90.10;;;;;;5062266;28;20245;-45
2021/03/17 08:33:48;;;;;;;4.85;2.00;;;25.70;90.10;;;;;;5062517;28;20063;-48
2021/03/17 08:36:17;;;;;;;5.18;2.10;;;25.70;90.10;;;;;;4982479;28;20109;-48
2021/03/17 08:39:37;;;;;;;4.15;1.83;;;25.70;90.10;;;;;;4986587;28;20034;-46
2021/03/17 08:42:29;;;;;;;7.07;1.80;;;25.70;90.10;;;;;;5042503;28;20083;-46
2021/03/17 08:45:28;;;;;;;5.90;1.90;;;25.70;90.30;;;;;;5045414;28;20052;-46
2021/03/17 08:47:57;;;;;;;4.18;2.00;;;25.70;90.20;;;;;;5049718;28;20029;-45
2021/03/17 08:50:48;;;;;;;5.68;1.90;;;25.70;90.20;;;;;;5061841;28;20342;-48
2021/03/17 08:53:44;;;;;;;4.50;2.25;;;25.80;90.10;;;;;;5022238;28;20038;-47
2021/03/17 08:56:46;;;;;;;4.57;1.90;;;25.70;90.00;;;;;;5005534;28;20065;-45
2021/03/17 08:59:22;;;;;;;5.10;1.92;;;25.80;90.10;;;;;;5020698;28;20033;-47
2021/03/17 09:02:01;;;;;;;4.07;2.30;;;25.80;90.20;;;;;;5021455;28;20375;-47
2021/03/17 09:05:06;;;;;;;4.93;1.90;;;25.80;90.30;;;;;;5036251;28;20362;-46
2021/03/17 09:07:34;;;;;;;5.43;2.38;;;25.80;90.30;;;;;;5022132;28;20231;-46
2021/03/17 09:10:15;;;;;;;7.97;2.40;;;25.80;90.30;;;;;;5025962;28;20050;-50
2021/03/17 09:12:45;;;;;;;7.25;2.15;;;25.80;90.20;;;;;;5025973;28;20030;-48
2021/03/17 09:15:17;;;;;;;7.50;2.47;;;25.80;90.20;;;;;;5026765;28;20133;-47
2021/03/17 09:17:57;;;;;;;6.28;2.28;;;25.80;90.10;;;;;;5025999;28;20126;-50
2021/03/17 09:20:40;;;;;;;8.00;2.40;;;25.80;90.20;;;;;;5026205;28;20052;-48
2021/03/17 09:23:21;;;;;;;4.57;1.90;;;25.80;90.30;;;;;;5026027;28;20026;-47
2021/03/17 09:25:52;;;;;;;3.55;2.20;;;25.80;90.30;;;;;;5025917;28;20034;-47
2021/03/17 09:28:25;;;;;;;4.10;2.40;;;25.80;90.30;;;;;;5025854;28;20028;-50
2021/03/17 09:30:56;;;;;;;;;;;25.80;90.60;;;;;;5025949;28;20331;-48
2021/03/17 09:33:30;;;;;;;6.50;2.45;;;25.80;90.50;;;;;;5025675;28;19940;-47
2021/03/17 09:36:03;;;;;;;5.70;2.50;;;25.70;90.80;;;;;;5025945;28;20041;-47
2021/03/17 09:38:34;;;;;;;5.28;2.17;;;25.70;90.90;;;;;;5045716;28;20035;-50
2021/03/17 09:41:19;;;;;;;6.55;2.55;;;25.70;91.00;;;;;;5048684;28;20119;-46
2021/03/17 09:43:50;;;;;;;8.07;2.55;;;25.70;91.10;;;;;;5065310;28;20044;-50
2021/03/17 09:46:41;;;;;;;8.65;2.45;;;25.80;91.00;;;;;;5065373;28;20025;-51
2021/03/17 09:49:16;;;;;;;6.38;2.72;;;25.80;91.20;;;;;;5055710;28;20310;-50
2021/03/17 09:51:55;;;;;;;3.92;2.03;;;25.70;90.70;;;;;;5054991;28;20323;-47
2021/03/17 09:54:25;;;;;;;6.28;2.45;;;25.70;90.80;;;;;;5004363;28;20018;-46
2021/03/17 09:57:15;;;;;;;5.40;2.08;;;25.70;90.90;;;;;;5069634;28;20042;-52
2021/03/17 09:59:50;;;;;;;6.55;2.58;;;25.70;90.90;;;;;;5060808;28;20321;-50
2021/03/17 10:02:25;;;;;;;6.63;2.47;;;25.70;90.70;;;;;;5006672;28;20218;-50
2021/03/17 10:05:02;;;;;;;6.47;2.30;;;25.70;90.60;;;;;;5013774;28;20094;-50
2021/03/17 10:07:33;;;;;;;4.70;2.45;;;25.80;90.60;;;;;;5068879;28;20038;-51
2021/03/17 10:10:04;;;;;;;5.43;2.55;;;25.70;90.80;;;;;;5016327;28;20058;-48
2021/03/17 10:12:32;;;;;;;5.30;2.42;;;25.70;90.90;;;;;;5008879;28;20034;-47
2021/03/17 10:15:09;;;;;;;7.78;2.92;;;25.70;90.80;;;;;;5023472;28;20371;-52
2021/03/17 10:17:37;;;;;;;8.38;2.67;;;25.70;90.90;;;;;;5023606;28;20033;-50
2021/03/17 10:20:10;;;;;;;11.43;2.28;;;25.70;91.00;;;;;;4989325;28;20030;-48
2021/03/17 10:22:38;;;;;;;8.65;2.33;;;25.70;91.00;;;;;;5023056;28;20018;-50
2021/03/17 10:25:19;;;;;;;6.68;2.22;;;25.70;91.10;;;;;;4990120;28;20187;-49
2021/03/17 10:27:49;;;;;;;8.48;2.25;;;25.70;91.30;;;;;;5023348;28;20018;-48
2021/03/17 10:30:26;;;;;;;9.75;2.30;;;25.70;91.20;;;;;;4990267;28;20025;-52
2021/03/17 10:33:00;;;;;;;9.32;2.17;;;25.70;91.20;;;;;;5023128;28;20334;-50
2021/03/17 10:35:31;;;;;;;6.13;2.28;;;25.70;91.20;;;;;;5023305;28;20036;-49
2021/03/17 10:38:00;;;;;;;6.95;2.75;;;25.70;91.00;;;;;;5023345;28;20026;-46
2021/03/17 10:40:30;;;;;;;6.55;2.72;;;25.70;91.00;;;;;;5023174;28;20170;-45
2021/03/17 10:43:00;;;;;;;5.85;2.33;;;25.70;91.00;;;;;;5005634;28;20054;-45
2021/03/17 10:45:32;;;;;;;6.53;2.55;;;25.60;91.10;;;;;;5023013;28;20065;-48
2021/03/17 10:48:15;;;;;;;4.50;2.15;;;25.70;91.30;;;;;;5017300;28;20044;-45
2021/03/17 10:50:42;;;;;;;6.18;2.20;;;25.60;91.40;;;;;;5022676;28;20026;-49
2021/03/17 10:53:37;;;;;;;6.70;2.38;;;25.70;91.20;;;;;;5022796;28;20029;-47
2021/03/17 10:56:30;;;;;;;12.07;2.72;;;25.70;91.10;;;;;;5019832;28;20050;-45
2021/03/17 10:59:10;;;;;;;6.88;2.35;;;25.70;91.10;;;;;;5022459;28;20086;-50
2021/03/17 11:01:45;;;;;;;5.72;2.55;;;25.70;91.20;;;;;;5007493;28;20026;-46
2021/03/17 11:04:27;;;;;;;17.30;3.03;;;25.70;91.30;;;;;;5006695;28;20060;-51
2021/03/17 11:07:13;;;;;;;5.38;2.95;;;25.70;91.30;;;;;;5023162;28;20306;-46
2021/03/17 11:09:43;;;;;;;9.70;2.80;;;25.60;91.20;;;;;;5022165;28;20046;-45
2021/03/17 11:12:32;;;;;;;11.52;3.33;;;25.60;91.50;;;;;;4988430;28;20026;-47
2021/03/17 11:15:27;;;;;;;6.47;2.75;;;25.60;91.60;;;;;;5005612;28;20025;-47
2021/03/17 11:17:55;;;;;;;8.73;2.83;;;25.60;91.80;;;;;;4989042;28;20097;-48
2021/03/17 11:20:30;;;;;;;9.38;3.13;;;25.60;91.80;;;;;;5027042;28;20030;-45
2021/03/17 11:23:13;;;;;;;9.27;2.97;;;25.60;91.90;;;;;;5021940;28;20210;-45
2021/03/17 11:25:51;;;;;;;10.25;3.47;;;25.60;91.80;;;;;;5023484;28;20336;-52
2021/03/17 11:28:24;;;;;;;11.40;3.83;;;25.70;92.10;;;;;;5022568;28;20022;-52
2021/03/17 11:31:39;;;;;;;8.20;3.17;;;25.60;92.10;;;;;;5004986;28;20022;-48
2021/03/17 11:34:10;;;;;;;5.63;3.33;;;25.70;92.00;;;;;;4982398;28;20102;-47
2021/03/17 11:36:38;;;;;;;8.85;3.28;;;25.70;92.00;;;;;;4982217;28;20133;-47
2021/03/17 11:39:26;;;;;;;8.27;3.08;;;25.60;92.10;;;;;;4950145;28;20045;-49
2021/03/17 11:42:01;;;;;;;7.40;3.00;;;25.70;92.20;;;;;;4983941;28;20039;-46
2021/03/17 11:44:28;;;;;;;8.82;3.35;;;25.70;92.10;;;;;;4981748;28;20050;-46
2021/03/17 11:47:02;;;;;;;9.65;3.65;;;25.60;92.20;;;;;;4966235;28;20035;-48
2021/03/17 11:49:51;;;;;;;11.00;4.05;;;25.70;92.20;;;;;;4943092;29;20036;-46
2021/03/17 11:52:24;;;;;;;9.20;4.63;;;25.60;92.20;;;;;;4943314;29;20271;-46
2021/03/17 11:54:51;;;;;;;13.20;5.47;;;25.70;92.10;;;;;;4942628;28;20271;-50
2021/03/17 11:57:24;;;;;;;11.80;5.43;;;25.70;92.20;;;;;;4929331;28;20032;-46
2021/03/17 11:59:52;;;;;;;11.38;5.07;;;25.70;92.30;;;;;;4927101;28;20038;-48
2021/03/17 12:02:24;;;;;;;7.53;4.53;;;25.80;92.10;;;;;;4927164;29;20068;-49
2021/03/17 12:04:55;;;;;;;15.27;9.25;;;25.80;92.20;;;;;;4928007;29;20103;-47
2021/03/17 12:07:21;;;;;;;16.83;7.85;;;25.80;91.90;;;;;;4911617;29;20106;-49
2021/03/17 12:09:50;;;;;;;10.95;5.18;;;25.70;92.00;;;;;;4942478;29;20391;-51
2021/03/17 12:12:19;;;;;;;9.73;5.95;;;25.80;91.80;;;;;;4927042;29;20032;-51
2021/03/17 12:14:47;;;;;;;10.93;4.93;;;25.80;91.70;;;;;;4926990;29;20028;-46
2021/03/17 12:17:18;;;;;;;12.52;5.85;;;25.80;91.90;;;;;;4942894;29;20328;-50
2021/03/17 12:19:45;;;;;;;8.50;4.30;;;25.80;92.00;;;;;;4911178;29;20039;-47
2021/03/17 12:22:18;;;;;;;13.38;5.78;;;25.80;92.20;;;;;;4926669;29;20034;-53
2021/03/17 12:24:45;;;;;;;12.23;5.35;;;25.70;92.50;;;;;;4940784;29;20024;-47
2021/03/17 12:27:13;;;;;;;12.40;4.78;;;25.70;92.60;;;;;;4926326;29;20059;-50
2021/03/17 12:29:44;;;;;;;12.30;4.13;;;25.70;92.70;;;;;;4926281;29;20062;-45
2021/03/17 12:32:11;;;;;;;22.13;6.57;;;25.70;92.80;;;;;;4926130;29;20039;-45
2021/03/17 12:34:49;;;;;;;14.30;4.57;;;25.60;93.30;;;;;;4926523;28;20227;-47
2021/03/17 12:37:17;;;;;;;13.18;4.80;;;25.60;93.10;;;;;;4927817;28;20039;-49
2021/03/17 12:39:51;;;;;;;12.93;4.63;;;25.60;93.20;;;;;;4942352;29;20054;-45
2021/03/17 12:42:28;;;;;;;12.65;3.60;;;25.70;93.40;;;;;;4941906;28;20047;-48
2021/03/17 12:45:08;;;;;;;10.60;4.38;;;25.60;93.50;;;;;;4926314;28;20320;-51
2021/03/17 12:47:54;;;;;;;10.70;4.20;;;25.70;93.50;;;;;;4978016;28;20322;-46
2021/03/17 12:50:32;;;;;;;11.02;5.20;;;25.70;93.60;;;;;;5006776;28;20037;-48
2021/03/17 12:53:14;;;;;;;10.48;4.88;;;25.70;93.70;;;;;;4966152;28;20073;-46
2021/03/17 12:55:48;;;;;;;20.80;3.83;;;25.70;93.60;;;;;;4966457;28;20035;-46
2021/03/17 12:58:19;;;;;;;12.18;3.55;;;25.70;93.60;;;;;;4980548;28;20086;-47
2021/03/17 13:00:49;;;;;;;7.63;3.60;;;25.70;93.70;;;;;;4973173;28;20039;-47
2021/03/17 13:03:19;;;;;;;12.38;3.78;;;25.70;93.80;;;;;;4979583;28;20214;-47
2021/03/17 13:05:52;;;;;;;10.35;3.60;;;25.80;93.70;;;;;;5021379;28;20022;-55
2021/03/17 13:08:19;;;;;;;9.93;3.50;;;25.80;94.10;;;;;;5021283;28;20288;-54
2021/03/17 13:11:06;;;;;;;11.32;4.13;;;25.80;94.10;;;;;;4986340;28;20050;-46
2021/03/17 13:13:34;;;;;;;9.25;3.40;;;25.80;94.00;;;;;;4999757;28;20376;-45
2021/03/17 13:16:00;;;;;;;12.23;4.15;;;25.80;94.10;;;;;;4999445;28;20061;-48
2021/03/17 13:18:27;;;;;;;9.00;3.60;;;25.80;94.60;;;;;;4999947;28;20049;-48
2021/03/17 13:20:54;;;;;;;11.32;3.40;;;25.90;94.50;;;;;;4983560;28;20030;-49
2021/03/17 13:23:21;;;;;;;10.45;3.50;;;25.90;94.40;;;;;;4999522;28;20026;-48
2021/03/17 13:25:49;;;;;;;7.57;3.22;;;25.90;94.40;;;;;;5000944;28;20034;-48
2021/03/17 13:28:20;;;;;;;10.60;3.67;;;25.90;94.40;;;;;;4999699;28;20034;-47
2021/03/17 13:30:56;;;;;;;9.13;3.33;;;25.90;94.30;;;;;;4983199;28;20155;-47